createdAt,value
2018-12-31T00:27:17.041Z,8.45
2018-12-31T00:27:17.616Z,8.45
2018-12-31T00:27:18.214Z,8.45
2018-12-31T00:27:18.815Z,8.44
2018-12-31T00:27:19.415Z,8.50
2018-12-31T00:27:20.014Z,8.51
2018-12-31T00:27:20.614Z,8.45
2018-12-31T00:27:21.214Z,8.51
2018-12-31T00:28:14.670Z,8.48
2018-12-31T00:28:15.267Z,8.50
2018-12-31T00:28:15.866Z,8.48
2018-12-31T00:28:16.467Z,8.55
2018-12-31T00:28:17.067Z,8.48
2018-12-31T00:28:17.669Z,8.54
2018-12-31T00:28:18.267Z,8.50
2018-12-31T00:28:18.868Z,8.44
2018-12-31T00:29:13.350Z,8.53
2018-12-31T00:29:13.943Z,8.47
2018-12-31T00:29:14.542Z,8.53
2018-12-31T00:29:15.142Z,8.53
2018-12-31T00:29:15.740Z,8.50
2018-12-31T00:29:16.341Z,8.47
2018-12-31T00:29:16.942Z,8.50
2018-12-31T00:29:17.540Z,8.54
2018-12-31T00:30:11.022Z,8.44
2018-12-31T00:30:11.597Z,8.51
2018-12-31T00:30:12.196Z,8.53
2018-12-31T00:30:12.795Z,8.50
2018-12-31T00:30:13.396Z,8.50
2018-12-31T00:30:13.995Z,8.48
2018-12-31T00:30:14.594Z,8.51
2018-12-31T00:30:15.197Z,8.51
2018-12-31T00:31:08.651Z,8.48
2018-12-31T00:31:09.249Z,8.53
2018-12-31T00:31:09.848Z,8.45
2018-12-31T00:31:10.450Z,8.47
2018-12-31T00:31:11.049Z,8.50
2018-12-31T00:31:11.648Z,8.55
2018-12-31T00:31:12.250Z,8.54
2018-12-31T00:31:12.848Z,8.50
2018-12-31T00:32:07.325Z,8.50
2018-12-31T00:32:07.924Z,8.51
2018-12-31T00:32:08.524Z,8.54
2018-12-31T00:32:09.124Z,8.57
2018-12-31T00:32:09.736Z,8.51
2018-12-31T00:32:10.322Z,8.53
2018-12-31T00:32:10.923Z,8.50
2018-12-31T00:32:11.525Z,8.50
2018-12-31T00:33:04.979Z,8.53
2018-12-31T00:33:05.578Z,8.50
2018-12-31T00:33:06.181Z,8.50
2018-12-31T00:33:06.775Z,8.48
2018-12-31T00:33:07.378Z,8.54
2018-12-31T00:33:07.976Z,8.60
2018-12-31T00:33:08.576Z,8.58
2018-12-31T00:33:09.176Z,8.53
2018-12-31T00:34:03.656Z,8.60
2018-12-31T00:34:04.253Z,8.51
2018-12-31T00:34:04.855Z,8.53
2018-12-31T00:34:05.452Z,8.54
2018-12-31T00:34:06.051Z,8.58
2018-12-31T00:34:06.650Z,8.60
2018-12-31T00:34:07.251Z,8.55
2018-12-31T00:34:07.850Z,8.55
2018-12-31T00:35:01.341Z,8.54
2018-12-31T00:35:01.906Z,8.57
2018-12-31T00:35:02.505Z,8.54
2018-12-31T00:35:03.105Z,8.57
2018-12-31T00:35:03.705Z,8.57
2018-12-31T00:35:04.304Z,8.65
2018-12-31T00:35:04.906Z,8.58
2018-12-31T00:35:05.504Z,8.53
2018-12-31T00:35:58.963Z,8.63
2018-12-31T00:35:59.556Z,8.58
2018-12-31T00:36:00.156Z,8.63
2018-12-31T00:36:00.757Z,8.60
2018-12-31T00:36:01.355Z,8.58
2018-12-31T00:36:01.955Z,8.60
2018-12-31T00:36:02.554Z,8.60
2018-12-31T00:36:03.155Z,8.57
2018-12-31T00:36:56.611Z,8.57
2018-12-31T00:36:57.208Z,8.62
2018-12-31T00:36:57.809Z,8.57
2018-12-31T00:36:58.409Z,8.62
2018-12-31T00:36:59.009Z,8.65
2018-12-31T00:36:59.608Z,8.55
2018-12-31T00:37:00.208Z,8.57
2018-12-31T00:37:00.807Z,8.55
2018-12-31T00:37:54.264Z,8.62
2018-12-31T00:37:54.859Z,8.57
2018-12-31T00:37:55.460Z,8.57
2018-12-31T00:37:56.063Z,8.60
2018-12-31T00:37:56.659Z,8.57
2018-12-31T00:37:57.262Z,8.58
2018-12-31T00:37:57.859Z,8.66
2018-12-31T00:37:58.458Z,8.60
2018-12-31T00:38:52.939Z,8.66
2018-12-31T00:38:53.535Z,8.68
2018-12-31T00:38:54.136Z,8.63
2018-12-31T00:38:54.737Z,8.60
2018-12-31T00:38:55.336Z,8.66
2018-12-31T00:38:55.935Z,8.66
2018-12-31T00:38:56.535Z,8.63
2018-12-31T00:38:57.135Z,8.68
2018-12-31T00:39:51.614Z,8.65
2018-12-31T00:39:52.211Z,8.71
2018-12-31T00:39:52.812Z,8.62
2018-12-31T00:39:53.411Z,8.69
2018-12-31T00:39:54.010Z,8.68
2018-12-31T00:39:54.611Z,8.65
2018-12-31T00:39:55.211Z,8.73
2018-12-31T00:39:55.811Z,8.62
2018-12-31T00:40:49.293Z,8.65
2018-12-31T00:40:49.864Z,8.69
2018-12-31T00:40:50.463Z,8.66
2018-12-31T00:40:51.063Z,8.71
2018-12-31T00:40:51.666Z,8.73
2018-12-31T00:40:52.263Z,8.73
2018-12-31T00:40:52.863Z,8.76
2018-12-31T00:40:53.463Z,8.72
2018-12-31T00:41:46.918Z,8.79
2018-12-31T00:41:47.516Z,8.73
2018-12-31T00:41:48.116Z,8.75
2018-12-31T00:41:48.716Z,8.72
2018-12-31T00:41:49.318Z,8.66
2018-12-31T00:41:49.915Z,8.72
2018-12-31T00:41:50.518Z,8.65
2018-12-31T00:41:51.115Z,8.65
2018-12-31T00:42:45.592Z,8.66
2018-12-31T00:42:46.189Z,8.83
2018-12-31T00:42:46.792Z,8.76
2018-12-31T00:42:47.390Z,8.68
2018-12-31T00:42:47.993Z,8.69
2018-12-31T00:42:48.592Z,8.78
2018-12-31T00:42:49.190Z,8.75
2018-12-31T00:42:49.789Z,8.71
2018-12-31T00:43:43.247Z,8.68
2018-12-31T00:43:43.844Z,8.75
2018-12-31T00:43:44.446Z,8.72
2018-12-31T00:43:45.043Z,8.81
2018-12-31T00:43:45.645Z,8.78
2018-12-31T00:43:46.243Z,8.81
2018-12-31T00:43:46.842Z,8.79
2018-12-31T00:43:47.444Z,8.83
2018-12-31T00:44:40.898Z,8.75
2018-12-31T00:44:41.495Z,8.75
2018-12-31T00:44:42.094Z,8.81
2018-12-31T00:44:42.695Z,8.75
2018-12-31T00:44:43.295Z,8.84
2018-12-31T00:44:43.895Z,8.84
2018-12-31T00:44:44.495Z,8.75
2018-12-31T00:44:45.095Z,8.81
2018-12-31T00:45:38.573Z,8.73
2018-12-31T00:45:39.147Z,8.93
2018-12-31T00:45:39.750Z,8.93
2018-12-31T00:45:40.348Z,8.90
2018-12-31T00:45:40.946Z,8.90
2018-12-31T00:45:41.547Z,8.90
2018-12-31T00:45:42.147Z,8.88
2018-12-31T00:45:42.746Z,8.83
2018-12-31T00:46:37.226Z,8.90
2018-12-31T00:46:37.822Z,8.87
2018-12-31T00:46:38.421Z,8.91
2018-12-31T00:46:39.022Z,8.76
2018-12-31T00:46:39.675Z,8.91
2018-12-31T00:46:40.221Z,8.88
2018-12-31T00:46:40.821Z,8.93
2018-12-31T00:46:41.420Z,8.90
2018-12-31T00:47:34.877Z,8.91
2018-12-31T00:47:35.473Z,8.84
2018-12-31T00:47:36.074Z,8.93
2018-12-31T00:47:36.674Z,8.87
2018-12-31T00:47:37.275Z,8.87
2018-12-31T00:47:37.875Z,8.79
2018-12-31T00:47:38.473Z,8.91
2018-12-31T00:47:39.073Z,8.91
2018-12-31T00:48:32.529Z,8.94
2018-12-31T00:48:33.126Z,8.91
2018-12-31T00:48:33.729Z,8.94
2018-12-31T00:48:34.329Z,8.94
2018-12-31T00:48:34.927Z,8.93
2018-12-31T00:48:35.526Z,8.93
2018-12-31T00:48:36.126Z,8.94
2018-12-31T00:48:36.728Z,8.99
2018-12-31T00:49:31.203Z,8.91
2018-12-31T00:49:31.802Z,8.97
2018-12-31T00:49:32.400Z,8.94
2018-12-31T00:49:33.001Z,8.97
2018-12-31T00:49:33.600Z,8.94
2018-12-31T00:49:34.202Z,8.97
2018-12-31T00:49:34.800Z,8.97
2018-12-31T00:49:35.400Z,8.96
2018-12-31T00:50:29.879Z,8.91
2018-12-31T00:50:30.475Z,8.99
2018-12-31T00:50:31.076Z,9.01
2018-12-31T00:50:31.676Z,8.93
2018-12-31T00:50:32.276Z,8.93
2018-12-31T00:50:32.876Z,8.97
2018-12-31T00:50:33.476Z,8.99
2018-12-31T00:50:34.076Z,8.93
2018-12-31T00:51:28.579Z,9.05
2018-12-31T00:51:29.152Z,8.94
2018-12-31T00:51:29.754Z,8.93
2018-12-31T00:51:30.351Z,9.04
2018-12-31T00:51:30.952Z,9.02
2018-12-31T00:51:31.553Z,8.99
2018-12-31T00:51:32.154Z,8.96
2018-12-31T00:51:32.754Z,9.04
2018-12-31T00:52:26.209Z,8.99
2018-12-31T00:52:26.806Z,8.91
2018-12-31T00:52:27.404Z,8.96
2018-12-31T00:52:28.006Z,9.04
2018-12-31T00:52:28.604Z,9.05
2018-12-31T00:52:29.205Z,9.02
2018-12-31T00:52:29.804Z,9.05
2018-12-31T00:52:30.404Z,9.09
2018-12-31T00:53:23.861Z,9.04
2018-12-31T00:53:24.456Z,9.09
2018-12-31T00:53:25.059Z,9.18
2018-12-31T00:53:25.656Z,9.09
2018-12-31T00:53:26.255Z,9.02
2018-12-31T00:53:26.856Z,9.05
2018-12-31T00:53:27.457Z,9.13
2018-12-31T00:53:28.055Z,9.05
2018-12-31T00:54:22.535Z,9.05
2018-12-31T00:54:23.132Z,9.01
2018-12-31T00:54:23.732Z,9.06
2018-12-31T00:54:24.333Z,8.96
2018-12-31T00:54:25.021Z,9.06
2018-12-31T00:54:25.531Z,9.02
2018-12-31T00:54:26.132Z,9.10
2018-12-31T00:54:26.733Z,9.06
2018-12-31T00:55:20.189Z,9.09
2018-12-31T00:55:20.784Z,9.04
2018-12-31T00:55:21.384Z,9.02
2018-12-31T00:55:21.988Z,9.12
2018-12-31T00:55:22.584Z,9.01
2018-12-31T00:55:23.186Z,9.02
2018-12-31T00:55:23.783Z,9.10
2018-12-31T00:55:24.385Z,8.96
2018-12-31T00:56:17.866Z,9.09
2018-12-31T00:56:18.442Z,9.06
2018-12-31T00:56:19.036Z,9.06
2018-12-31T00:56:19.636Z,9.10
2018-12-31T00:56:20.236Z,9.09
2018-12-31T00:56:20.836Z,9.10
2018-12-31T00:56:21.437Z,9.09
2018-12-31T00:56:22.034Z,9.12
2018-12-31T00:57:16.517Z,9.06
2018-12-31T00:57:17.112Z,9.16
2018-12-31T00:57:17.711Z,9.10
2018-12-31T00:57:18.310Z,9.16
2018-12-31T00:57:18.911Z,9.12
2018-12-31T00:57:19.511Z,9.10
2018-12-31T00:57:20.109Z,9.16
2018-12-31T00:57:20.710Z,9.21
2018-12-31T00:58:14.167Z,9.16
2018-12-31T00:58:14.763Z,9.12
2018-12-31T00:58:15.363Z,9.12
2018-12-31T00:58:15.964Z,9.16
2018-12-31T00:58:16.563Z,9.16
2018-12-31T00:58:17.163Z,9.15
2018-12-31T00:58:17.762Z,9.15
2018-12-31T00:58:18.362Z,9.10
2018-12-31T00:59:11.825Z,9.12
2018-12-31T00:59:12.415Z,9.12
2018-12-31T00:59:13.016Z,9.13
2018-12-31T00:59:13.614Z,9.09
2018-12-31T00:59:14.215Z,9.12
2018-12-31T00:59:14.815Z,9.13
2018-12-31T00:59:15.415Z,9.18
2018-12-31T00:59:16.016Z,9.10
2018-12-31T01:00:09.469Z,9.12
2018-12-31T01:00:10.067Z,9.12
2018-12-31T01:00:10.667Z,9.24
2018-12-31T01:00:11.267Z,9.15
2018-12-31T01:00:11.866Z,9.21
2018-12-31T01:00:12.468Z,9.15
2018-12-31T01:00:13.069Z,9.18
2018-12-31T01:00:13.667Z,9.23
2018-12-31T01:01:08.169Z,9.13
2018-12-31T01:01:08.742Z,9.09
2018-12-31T01:01:09.341Z,9.23
2018-12-31T01:01:09.941Z,9.21
2018-12-31T01:01:10.542Z,9.15
2018-12-31T01:01:11.140Z,9.21
2018-12-31T01:01:11.740Z,9.24
2018-12-31T01:01:12.342Z,9.21
2018-12-31T01:02:05.796Z,9.21
2018-12-31T01:02:06.393Z,9.25
2018-12-31T01:02:06.994Z,9.25
2018-12-31T01:02:07.593Z,9.21
2018-12-31T01:02:08.194Z,9.25
2018-12-31T01:02:08.793Z,9.34
2018-12-31T01:02:09.393Z,9.21
2018-12-31T01:02:09.993Z,9.24
2018-12-31T01:03:04.471Z,9.27
2018-12-31T01:03:05.071Z,9.30
2018-12-31T01:03:05.668Z,9.24
2018-12-31T01:03:06.268Z,9.30
2018-12-31T01:03:06.871Z,9.23
2018-12-31T01:03:07.469Z,9.32
2018-12-31T01:03:08.068Z,9.24
2018-12-31T01:03:08.670Z,9.24
2018-12-31T01:04:03.148Z,9.27
2018-12-31T01:04:03.747Z,9.24
2018-12-31T01:04:04.350Z,9.27
2018-12-31T01:04:04.946Z,9.24
2018-12-31T01:04:05.544Z,9.25
2018-12-31T01:04:06.144Z,9.32
2018-12-31T01:04:06.745Z,9.32
2018-12-31T01:04:07.344Z,9.31
2018-12-31T01:05:02.361Z,9.31
2018-12-31T01:05:02.927Z,9.35
2018-12-31T01:05:03.527Z,9.39
2018-12-31T01:05:04.127Z,9.35
2018-12-31T01:05:04.727Z,9.28
2018-12-31T01:05:05.328Z,9.25
2018-12-31T01:05:05.926Z,9.35
2018-12-31T01:06:00.392Z,9.31
2018-12-31T01:06:00.989Z,9.35
2018-12-31T01:06:01.589Z,9.32
2018-12-31T01:06:02.191Z,9.30
2018-12-31T01:06:02.791Z,9.35
2018-12-31T01:06:03.388Z,9.35
2018-12-31T01:06:03.988Z,9.38
2018-12-31T01:06:04.588Z,9.42
2018-12-31T01:06:59.067Z,9.40
2018-12-31T01:06:59.666Z,9.42
2018-12-31T01:07:00.265Z,9.39
2018-12-31T01:07:00.865Z,9.46
2018-12-31T01:07:01.466Z,9.42
2018-12-31T01:07:02.065Z,9.31
2018-12-31T01:07:02.664Z,9.35
2018-12-31T01:07:03.265Z,9.43
2018-12-31T01:07:57.743Z,9.42
2018-12-31T01:07:58.340Z,9.42
2018-12-31T01:07:58.941Z,9.30
2018-12-31T01:07:59.542Z,9.32
2018-12-31T01:08:00.140Z,9.42
2018-12-31T01:08:00.739Z,9.42
2018-12-31T01:08:01.341Z,9.42
2018-12-31T01:08:01.943Z,9.32
2018-12-31T01:11:24.297Z,9.38
2018-12-31T01:11:24.870Z,9.39
2018-12-31T01:11:25.471Z,9.46
2018-12-31T01:11:26.071Z,9.35
2018-12-31T01:11:26.669Z,9.46
2018-12-31T01:11:27.268Z,9.40
2018-12-31T01:11:27.871Z,9.38
2018-12-31T01:11:28.468Z,9.43
2018-12-31T01:11:29.068Z,9.32
2018-12-31T01:11:29.669Z,9.32
2018-12-31T01:11:30.277Z,9.40
2018-12-31T01:11:30.868Z,9.45
2018-12-31T01:12:26.340Z,9.46
2018-12-31T01:12:26.943Z,9.46
2018-12-31T01:12:27.538Z,9.46
2018-12-31T01:12:28.138Z,9.49
2018-12-31T01:12:28.737Z,9.38
2018-12-31T01:12:29.340Z,9.49
2018-12-31T01:12:29.938Z,9.48
2018-12-31T01:13:44.473Z,9.48
2018-12-31T01:13:45.070Z,9.48
2018-12-31T01:13:45.669Z,9.45
2018-12-31T01:13:46.269Z,9.46
2018-12-31T01:13:46.868Z,9.42
2018-12-31T01:13:47.474Z,9.40
2018-12-31T01:13:48.070Z,9.35
2018-12-31T01:13:48.671Z,9.45
2018-12-31T01:14:42.126Z,9.46
2018-12-31T01:14:42.726Z,9.43
2018-12-31T01:14:43.322Z,9.42
2018-12-31T01:14:43.923Z,9.40
2018-12-31T01:14:44.522Z,9.46
2018-12-31T01:14:45.125Z,9.38
2018-12-31T01:14:45.723Z,9.52
2018-12-31T01:14:46.323Z,9.42
2018-12-31T01:15:39.776Z,9.46
2018-12-31T01:15:40.377Z,9.40
2018-12-31T01:15:40.974Z,9.48
2018-12-31T01:15:41.574Z,9.43
2018-12-31T01:15:42.174Z,9.49
2018-12-31T01:15:42.774Z,9.40
2018-12-31T01:15:43.373Z,9.40
2018-12-31T01:15:43.973Z,9.43
2018-12-31T01:16:37.451Z,9.49
2018-12-31T01:16:38.025Z,9.53
2018-12-31T01:16:38.626Z,9.52
2018-12-31T01:16:39.230Z,9.50
2018-12-31T01:16:39.826Z,9.50
2018-12-31T01:16:40.427Z,9.56
2018-12-31T01:16:41.025Z,9.49
2018-12-31T01:16:41.626Z,9.52
2018-12-31T01:17:35.081Z,9.50
2018-12-31T01:17:35.676Z,9.50
2018-12-31T01:17:36.278Z,9.56
2018-12-31T01:17:36.879Z,9.53
2018-12-31T01:17:37.478Z,9.50
2018-12-31T01:17:38.077Z,9.50
2018-12-31T01:17:38.678Z,9.53
2018-12-31T01:17:39.275Z,9.53
2018-12-31T01:18:33.242Z,9.56
2018-12-31T01:18:33.845Z,9.56
2018-12-31T01:18:34.442Z,9.58
2018-12-31T01:18:35.045Z,9.53
2018-12-31T01:18:35.639Z,9.50
2018-12-31T01:18:36.240Z,9.45
2018-12-31T01:18:36.839Z,9.52
2018-12-31T01:19:31.309Z,9.52
2018-12-31T01:19:31.902Z,9.56
2018-12-31T01:19:32.501Z,9.49
2018-12-31T01:19:33.100Z,9.49
2018-12-31T01:19:33.700Z,9.52
2018-12-31T01:19:34.300Z,9.49
2018-12-31T01:19:34.943Z,9.52
2018-12-31T01:19:35.499Z,9.48
2018-12-31T01:20:29.979Z,9.56
2018-12-31T01:20:30.577Z,9.49
2018-12-31T01:20:31.177Z,9.50
2018-12-31T01:20:31.779Z,9.56
2018-12-31T01:20:32.378Z,9.49
2018-12-31T01:20:32.978Z,9.49
2018-12-31T01:20:33.576Z,9.53
2018-12-31T01:20:34.177Z,9.50
2018-12-31T01:21:28.656Z,9.48
2018-12-31T01:21:29.254Z,9.50
2018-12-31T01:21:29.854Z,9.52
2018-12-31T01:21:30.456Z,9.53
2018-12-31T01:21:31.052Z,9.52
2018-12-31T01:21:31.653Z,9.52
2018-12-31T01:21:32.254Z,9.52
2018-12-31T01:21:32.858Z,9.52
2018-12-31T01:22:27.362Z,9.50
2018-12-31T01:22:27.928Z,9.56
2018-12-31T01:22:28.527Z,9.53
2018-12-31T01:22:29.129Z,9.56
2018-12-31T01:22:29.728Z,9.50
2018-12-31T01:22:30.328Z,9.48
2018-12-31T01:22:30.927Z,9.57
2018-12-31T01:22:31.529Z,9.53
2018-12-31T01:23:26.009Z,9.50
2018-12-31T01:23:26.606Z,9.52
2018-12-31T01:23:27.204Z,9.53
2018-12-31T01:23:27.804Z,9.45
2018-12-31T01:23:28.404Z,9.52
2018-12-31T01:23:29.003Z,9.56
2018-12-31T01:23:29.604Z,9.57
2018-12-31T01:23:30.202Z,9.56
2018-12-31T01:24:24.683Z,9.52
2018-12-31T01:24:25.279Z,9.53
2018-12-31T01:24:25.883Z,9.52
2018-12-31T01:24:26.483Z,9.60
2018-12-31T01:24:27.080Z,9.49
2018-12-31T01:24:27.679Z,9.52
2018-12-31T01:24:28.280Z,9.49
2018-12-31T01:24:28.879Z,9.50
2018-12-31T01:25:23.358Z,9.53
2018-12-31T01:25:23.956Z,9.56
2018-12-31T01:25:24.556Z,9.52
2018-12-31T01:25:25.156Z,9.50
2018-12-31T01:25:25.755Z,9.57
2018-12-31T01:25:26.355Z,9.52
2018-12-31T01:25:26.956Z,9.50
2018-12-31T01:25:27.555Z,9.49
2018-12-31T01:26:22.034Z,9.52
2018-12-31T01:26:22.634Z,9.52
2018-12-31T01:26:23.231Z,9.49
2018-12-31T01:26:23.832Z,9.50
2018-12-31T01:26:24.431Z,9.52
2018-12-31T01:26:25.031Z,9.56
2018-12-31T01:26:25.629Z,9.50
2018-12-31T01:26:26.232Z,9.57
2018-12-31T01:27:20.712Z,9.53
2018-12-31T01:27:21.308Z,9.52
2018-12-31T01:27:21.906Z,9.52
2018-12-31T01:27:22.507Z,9.49
2018-12-31T01:27:23.107Z,9.56
2018-12-31T01:27:23.706Z,9.60
2018-12-31T01:27:24.307Z,9.49
2018-12-31T01:27:24.907Z,9.57
2018-12-31T01:28:18.392Z,9.45
2018-12-31T01:28:18.960Z,9.60
2018-12-31T01:28:19.564Z,9.61
2018-12-31T01:28:20.159Z,9.61
2018-12-31T01:28:20.759Z,9.56
2018-12-31T01:28:21.360Z,9.52
2018-12-31T01:28:21.959Z,9.60
2018-12-31T01:28:22.563Z,9.58
2018-12-31T01:29:16.018Z,9.49
2018-12-31T01:29:16.612Z,9.58
2018-12-31T01:29:17.211Z,9.57
2018-12-31T01:29:17.812Z,9.61
2018-12-31T01:29:18.414Z,9.64
2018-12-31T01:29:19.012Z,9.52
2018-12-31T01:29:19.610Z,9.60
2018-12-31T01:29:20.210Z,9.56
2018-12-31T01:30:14.689Z,9.60
2018-12-31T01:30:15.287Z,9.60
2018-12-31T01:30:15.887Z,9.63
2018-12-31T01:30:16.488Z,9.60
2018-12-31T01:30:17.088Z,9.53
2018-12-31T01:30:17.685Z,9.56
2018-12-31T01:30:18.286Z,9.58
2018-12-31T01:30:18.885Z,9.60
2018-12-31T01:31:12.341Z,9.60
2018-12-31T01:31:12.941Z,9.57
2018-12-31T01:31:13.539Z,9.61
2018-12-31T01:31:14.138Z,9.63
2018-12-31T01:31:14.739Z,9.58
2018-12-31T01:31:15.338Z,9.57
2018-12-31T01:31:15.937Z,9.57
2018-12-31T01:31:16.538Z,9.60
2018-12-31T01:32:11.016Z,9.53
2018-12-31T01:32:11.615Z,9.63
2018-12-31T01:32:12.213Z,9.64
2018-12-31T01:32:12.815Z,9.63
2018-12-31T01:32:13.415Z,9.67
2018-12-31T01:32:14.013Z,9.60
2018-12-31T01:32:14.613Z,9.60
2018-12-31T01:32:15.214Z,9.61
2018-12-31T01:33:08.669Z,9.60
2018-12-31T01:33:09.265Z,9.58
2018-12-31T01:33:09.871Z,9.58
2018-12-31T01:33:10.468Z,9.61
2018-12-31T01:33:11.064Z,9.63
2018-12-31T01:33:11.663Z,9.60
2018-12-31T01:33:12.264Z,9.53
2018-12-31T01:33:12.864Z,9.58
2018-12-31T01:34:07.368Z,9.52
2018-12-31T01:34:07.941Z,9.61
2018-12-31T01:34:08.546Z,9.52
2018-12-31T01:34:09.141Z,9.56
2018-12-31T01:34:09.741Z,9.57
2018-12-31T01:34:10.343Z,9.57
2018-12-31T01:34:10.940Z,9.63
2018-12-31T01:34:11.540Z,9.63
2018-12-31T01:35:06.020Z,9.57
2018-12-31T01:35:06.619Z,9.61
2018-12-31T01:35:07.217Z,9.61
2018-12-31T01:35:07.817Z,9.64
2018-12-31T01:35:08.415Z,9.67
2018-12-31T01:35:09.018Z,9.56
2018-12-31T01:35:09.617Z,9.63
2018-12-31T01:35:10.217Z,9.57
2018-12-31T01:36:03.673Z,9.61
2018-12-31T01:36:04.270Z,9.53
2018-12-31T01:36:04.870Z,9.53
2018-12-31T01:36:05.470Z,9.58
2018-12-31T01:36:06.069Z,9.61
2018-12-31T01:36:06.672Z,9.63
2018-12-31T01:36:07.268Z,9.56
2018-12-31T01:36:07.868Z,9.58
2018-12-31T01:37:02.347Z,9.57
2018-12-31T01:37:02.945Z,9.57
2018-12-31T01:37:03.545Z,9.58
2018-12-31T01:37:04.145Z,9.58
2018-12-31T01:37:04.744Z,9.60
2018-12-31T01:37:05.345Z,9.63
2018-12-31T01:37:05.944Z,9.60
2018-12-31T01:37:06.545Z,9.58
2018-12-31T01:38:01.022Z,9.49
2018-12-31T01:38:01.621Z,9.57
2018-12-31T01:38:02.220Z,9.60
2018-12-31T01:38:02.819Z,9.53
2018-12-31T01:38:03.420Z,9.63
2018-12-31T01:38:04.020Z,9.61
2018-12-31T01:38:04.618Z,9.60
2018-12-31T01:38:05.219Z,9.49
2018-12-31T01:38:58.706Z,9.50
2018-12-31T01:38:59.273Z,9.50
2018-12-31T01:38:59.871Z,9.48
2018-12-31T01:39:00.473Z,9.50
2018-12-31T01:39:01.071Z,9.53
2018-12-31T01:39:01.671Z,9.42
2018-12-31T01:39:02.272Z,9.50
2018-12-31T01:39:02.870Z,9.52
2018-12-31T01:39:57.350Z,9.52
2018-12-31T01:39:57.948Z,9.50
2018-12-31T01:39:58.547Z,9.53
2018-12-31T01:39:59.147Z,9.50
2018-12-31T01:39:59.747Z,9.53
2018-12-31T01:40:00.350Z,9.50
2018-12-31T01:40:00.948Z,9.53
2018-12-31T01:40:01.547Z,9.49
2018-12-31T01:40:55.003Z,9.49
2018-12-31T01:40:55.600Z,9.53
2018-12-31T01:40:56.200Z,9.53
2018-12-31T01:40:56.798Z,9.52
2018-12-31T01:40:57.398Z,9.46
2018-12-31T01:40:58.002Z,9.52
2018-12-31T01:40:58.602Z,9.56
2018-12-31T01:40:59.198Z,9.53
2018-12-31T01:41:53.678Z,9.45
2018-12-31T01:41:54.274Z,9.52
2018-12-31T01:41:54.876Z,9.52
2018-12-31T01:41:55.475Z,9.53
2018-12-31T01:41:56.074Z,9.52
2018-12-31T01:41:56.678Z,9.56
2018-12-31T01:41:57.274Z,9.52
2018-12-31T01:41:57.874Z,9.52
2018-12-31T01:42:51.330Z,9.52
2018-12-31T01:42:51.927Z,9.52
2018-12-31T01:42:52.528Z,9.49
2018-12-31T01:42:53.127Z,9.52
2018-12-31T01:42:53.727Z,9.46
2018-12-31T01:42:54.327Z,9.50
2018-12-31T01:42:54.928Z,9.48
2018-12-31T01:42:55.526Z,9.53
2018-12-31T01:43:50.005Z,9.52
2018-12-31T01:43:50.603Z,9.46
2018-12-31T01:43:51.202Z,9.58
2018-12-31T01:43:51.807Z,9.57
2018-12-31T01:43:52.403Z,9.56
2018-12-31T01:43:53.002Z,9.60
2018-12-31T01:43:53.600Z,9.57
2018-12-31T01:43:54.201Z,9.52
2018-12-31T01:44:48.711Z,9.52
2018-12-31T01:44:49.280Z,9.45
2018-12-31T01:44:49.883Z,9.49
2018-12-31T01:44:50.478Z,9.57
2018-12-31T01:44:51.078Z,9.49
2018-12-31T01:44:51.677Z,9.56
2018-12-31T01:44:52.279Z,9.57
2018-12-31T01:44:52.877Z,9.52
2018-12-31T01:45:46.333Z,9.56
2018-12-31T01:45:46.934Z,9.52
2018-12-31T01:45:47.530Z,9.63
2018-12-31T01:45:48.131Z,9.52
2018-12-31T01:45:48.732Z,9.57
2018-12-31T01:45:49.329Z,9.58
2018-12-31T01:45:49.930Z,9.53
2018-12-31T01:45:50.530Z,9.56
2018-12-31T01:46:45.007Z,9.56
2018-12-31T01:46:45.608Z,9.57
2018-12-31T01:46:46.206Z,9.53
2018-12-31T01:46:46.806Z,9.53
2018-12-31T01:46:47.408Z,9.56
2018-12-31T01:46:48.005Z,9.57
2018-12-31T01:46:48.605Z,9.57
2018-12-31T01:46:49.205Z,9.53
2018-12-31T01:47:43.685Z,9.63
2018-12-31T01:47:44.281Z,9.56
2018-12-31T01:47:44.882Z,9.48
2018-12-31T01:47:45.483Z,9.56
2018-12-31T01:47:46.080Z,9.60
2018-12-31T01:47:46.681Z,9.53
2018-12-31T01:47:47.279Z,9.56
2018-12-31T01:47:47.880Z,9.58
2018-12-31T01:48:42.360Z,9.52
2018-12-31T01:48:42.957Z,9.56
2018-12-31T01:48:43.559Z,9.58
2018-12-31T01:48:44.156Z,9.53
2018-12-31T01:48:44.758Z,9.52
2018-12-31T01:48:45.356Z,9.56
2018-12-31T01:48:46.038Z,9.48
2018-12-31T01:48:46.557Z,9.57
2018-12-31T01:49:40.012Z,9.56
2018-12-31T01:49:40.695Z,9.53
2018-12-31T01:49:41.209Z,9.53
2018-12-31T01:49:41.810Z,9.52
2018-12-31T01:49:42.408Z,9.48
2018-12-31T01:49:43.008Z,9.48
2018-12-31T01:49:43.608Z,9.52
2018-12-31T01:49:44.210Z,9.49
2018-12-31T01:50:37.687Z,9.49
2018-12-31T01:50:38.259Z,9.52
2018-12-31T01:50:38.861Z,9.56
2018-12-31T01:50:39.459Z,9.53
2018-12-31T01:50:40.061Z,9.53
2018-12-31T01:50:40.660Z,9.52
2018-12-31T01:50:41.260Z,9.56
2018-12-31T01:50:41.859Z,9.57
2018-12-31T01:51:36.343Z,9.52
2018-12-31T01:51:36.935Z,9.52
2018-12-31T01:51:37.536Z,9.53
2018-12-31T01:51:38.135Z,9.52
2018-12-31T01:51:38.734Z,9.57
2018-12-31T01:51:39.335Z,9.56
2018-12-31T01:51:39.935Z,9.53
2018-12-31T01:51:40.535Z,9.49
2018-12-31T01:52:35.014Z,9.56
2018-12-31T01:52:35.612Z,9.49
2018-12-31T01:52:36.212Z,9.52
2018-12-31T01:52:36.811Z,9.56
2018-12-31T01:52:37.414Z,9.52
2018-12-31T01:52:38.012Z,9.52
2018-12-31T01:52:38.610Z,9.53
2018-12-31T01:52:39.210Z,9.53
2018-12-31T01:53:32.665Z,9.52
2018-12-31T01:53:33.265Z,9.52
2018-12-31T01:53:33.864Z,9.56
2018-12-31T01:53:34.463Z,9.50
2018-12-31T01:53:35.064Z,9.53
2018-12-31T01:53:35.663Z,9.50
2018-12-31T01:53:36.262Z,9.53
2018-12-31T01:53:36.864Z,9.52
2018-12-31T01:54:31.341Z,9.57
2018-12-31T01:54:31.964Z,9.52
2018-12-31T01:54:32.539Z,9.50
2018-12-31T01:54:33.139Z,9.52
2018-12-31T01:54:33.738Z,9.53
2018-12-31T01:54:34.341Z,9.50
2018-12-31T01:54:34.938Z,9.49
2018-12-31T01:54:35.538Z,9.53
2018-12-31T01:55:28.994Z,9.45
2018-12-31T01:55:29.591Z,9.50
2018-12-31T01:55:30.192Z,9.52
2018-12-31T01:55:30.791Z,9.46
2018-12-31T01:55:31.390Z,9.52
2018-12-31T01:55:31.994Z,9.49
2018-12-31T01:55:32.591Z,9.52
2018-12-31T01:55:33.190Z,9.46
2018-12-31T01:56:27.693Z,9.52
2018-12-31T01:56:28.265Z,9.45
2018-12-31T01:56:28.865Z,9.45
2018-12-31T01:56:29.465Z,9.48
2018-12-31T01:56:30.065Z,9.49
2018-12-31T01:56:30.665Z,9.58
2018-12-31T01:56:31.266Z,9.52
2018-12-31T01:56:31.867Z,9.38
2018-12-31T01:57:26.368Z,9.49
2018-12-31T01:57:26.943Z,9.50
2018-12-31T01:57:27.544Z,9.49
2018-12-31T01:57:28.141Z,9.52
2018-12-31T01:57:28.741Z,9.50
2018-12-31T01:57:29.341Z,9.53
2018-12-31T01:57:29.941Z,9.45
2018-12-31T01:57:30.542Z,9.52
2018-12-31T01:58:25.043Z,9.53
2018-12-31T01:58:25.618Z,9.56
2018-12-31T01:58:26.217Z,9.50
2018-12-31T01:58:26.816Z,9.56
2018-12-31T01:58:27.418Z,9.56
2018-12-31T01:58:28.017Z,9.50
2018-12-31T01:58:28.618Z,9.53
2018-12-31T01:58:29.216Z,9.50
2018-12-31T01:59:22.674Z,9.50
2018-12-31T01:59:23.270Z,9.50
2018-12-31T01:59:23.869Z,9.50
2018-12-31T01:59:24.474Z,9.50
2018-12-31T01:59:25.072Z,9.50
2018-12-31T01:59:25.670Z,9.50
2018-12-31T01:59:26.269Z,9.50
2018-12-31T01:59:26.869Z,9.53
2018-12-31T02:00:21.348Z,9.49
2018-12-31T02:00:21.946Z,9.56
2018-12-31T02:00:22.545Z,9.52
2018-12-31T02:00:23.144Z,9.52
2018-12-31T02:00:23.745Z,9.52
2018-12-31T02:00:24.345Z,9.52
2018-12-31T02:00:24.947Z,9.53
2018-12-31T02:00:25.545Z,9.52
2018-12-31T02:01:20.047Z,9.49
2018-12-31T02:01:20.622Z,9.52
2018-12-31T02:01:21.220Z,9.50
2018-12-31T02:01:21.820Z,9.53
2018-12-31T02:01:22.421Z,9.56
2018-12-31T02:01:23.020Z,9.49
2018-12-31T02:01:23.622Z,9.52
2018-12-31T02:01:24.219Z,9.50
2018-12-31T02:02:18.698Z,9.42
2018-12-31T02:02:19.297Z,9.56
2018-12-31T02:02:19.896Z,9.52
2018-12-31T02:02:20.496Z,9.49
2018-12-31T02:02:21.095Z,9.40
2018-12-31T02:02:21.698Z,9.50
2018-12-31T02:02:22.294Z,9.49
2018-12-31T02:02:22.895Z,9.43
2018-12-31T02:03:16.357Z,9.43
2018-12-31T02:03:16.950Z,9.46
2018-12-31T02:03:17.548Z,9.48
2018-12-31T02:03:18.148Z,9.49
2018-12-31T02:03:18.749Z,9.46
2018-12-31T02:03:19.348Z,9.45
2018-12-31T02:03:19.947Z,9.46
2018-12-31T02:03:20.548Z,9.49
2018-12-31T02:04:15.026Z,9.48
2018-12-31T02:04:15.626Z,9.49
2018-12-31T02:04:16.225Z,9.50
2018-12-31T02:04:16.823Z,9.48
2018-12-31T02:04:17.424Z,9.48
2018-12-31T02:04:18.025Z,9.53
2018-12-31T02:04:18.627Z,9.56
2018-12-31T02:04:19.223Z,9.52
2018-12-31T02:05:13.702Z,9.49
2018-12-31T02:05:14.300Z,9.53
2018-12-31T02:05:14.901Z,9.50
2018-12-31T02:05:15.499Z,9.56
2018-12-31T02:05:16.099Z,9.52
2018-12-31T02:05:16.699Z,9.56
2018-12-31T02:05:17.298Z,9.52
2018-12-31T02:05:17.898Z,9.50
2018-12-31T02:06:11.385Z,9.39
2018-12-31T02:06:11.952Z,9.46
2018-12-31T02:06:12.554Z,9.48
2018-12-31T02:06:13.151Z,9.46
2018-12-31T02:06:13.751Z,9.48
2018-12-31T02:06:14.352Z,9.48